Terminal Aerodrome Forecast
Issued by NWS Charleston, WV

Current Version | Previous Version | Graphics & Text | Print | Product List | Glossary On
Versions: 1 2 3 4 5 6 7 8 9 10 11 12 13 14 15 16 17 18 19 20 21 22 23 24 25 26 27 28 29
000
FTUS41 KRLX 132200 AAA
TAFBKW
TAF AMD
KBKW 132204Z 1322/1418 34006KT P6SM SCT012 BKN035
     FM140100 35005KT P6SM BKN010
     FM141500 14004KT P6SM SCT020=

USA.gov is the U.S. government's official web portal to all federal, state and local government web resources and services.